KR-0464 weather

Oryukdo SK Apartments Heliports
Busan, Busan Gwang'yeogsi, South Korea

Public forecast

Using degrees Celsius for public forecast. Weather courtesy of forecast.io.

Closest aviation weather report (METAR) to Oryukdo SK Apartments Heliports

Closest report is Gimhae International Airport, 10.0 nm (18.5 km) WNW. Retrieved 2020/07/09 18:00 UTC (27 minutes ago):

RKPK 091800Z 03005KT 6000 -RA SCT010 BKN015 OVC030 23/21 Q1003

Closest aviation forecast (TAF) to Oryukdo SK Apartments Heliports

Closest forecast is Gimhae International Airport, 10.0 nm (18.5 km) WNW. Retrieved 2020/07/09 18:00 UTC (27 minutes ago):

TAF RKPK 091700Z 0918/1024 03010KT 4800 -RA BR SCT010 BKN015 BKN030 TN22/0921Z TX26/1006Z BECMG 0921/0922 18010KT 3200 RA BR BKN010 BKN030 BECMG 1009/1010 21006KT 4800 BR BKN015 BKN030